sensor_id;sensor_type;location;lat;lon;timestamp;temperature;humidity
19966;DHT22;10144;50.874;4.762;2023-07-30T00:01:59;17.40;99.90
19966;DHT22;10144;50.874;4.762;2023-07-30T00:04:25;17.30;99.90
19966;DHT22;10144;50.874;4.762;2023-07-30T00:06:51;17.20;99.90
19966;DHT22;10144;50.874;4.762;2023-07-30T00:09:19;17.20;99.90
19966;DHT22;10144;50.874;4.762;2023-07-30T00:11:44;17.20;99.90
19966;DHT22;10144;50.874;4.762;2023-07-30T00:14:10;17.20;99.90
19966;DHT22;10144;50.874;4.762;2023-07-30T00:16:39;17.20;99.90
19966;DHT22;10144;50.874;4.762;2023-07-30T00:19:06;17.10;99.90
19966;DHT22;10144;50.874;4.762;2023-07-30T00:21:31;17.10;99.90
19966;DHT22;10144;50.874;4.762;2023-07-30T00:23:57;17.00;99.90
19966;DHT22;10144;50.874;4.762;2023-07-30T00:26:25;16.80;99.90
19966;DHT22;10144;50.874;4.762;2023-07-30T00:28:52;16.80;99.90
19966;DHT22;10144;50.874;4.762;2023-07-30T00:31:18;16.90;99.90
19966;DHT22;10144;50.874;4.762;2023-07-30T00:33:45;16.90;99.90
19966;DHT22;10144;50.874;4.762;2023-07-30T00:36:13;16.90;99.90
19966;DHT22;10144;50.874;4.762;2023-07-30T00:38:39;16.90;99.90
19966;DHT22;10144;50.874;4.762;2023-07-30T00:41:05;16.80;99.90
19966;DHT22;10144;50.874;4.762;2023-07-30T00:43:31;16.80;99.90
19966;DHT22;10144;50.874;4.762;2023-07-30T00:45:58;16.80;99.90
19966;DHT22;10144;50.874;4.762;2023-07-30T00:48:24;16.80;99.90
19966;DHT22;10144;50.874;4.762;2023-07-30T00:50:50;16.80;99.90
19966;DHT22;10144;50.874;4.762;2023-07-30T00:53:16;16.80;99.90
19966;DHT22;10144;50.874;4.762;2023-07-30T00:55:44;16.70;99.90
19966;DHT22;10144;50.874;4.762;2023-07-30T00:58:12;16.70;99.90
19966;DHT22;10144;50.874;4.762;2023-07-30T01:00:41;16.70;99.90
19966;DHT22;10144;50.874;4.762;2023-07-30T01:03:07;16.60;99.90
19966;DHT22;10144;50.874;4.762;2023-07-30T01:05:34;16.70;99.90
19966;DHT22;10144;50.874;4.762;2023-07-30T01:07:59;16.60;99.90
19966;DHT22;10144;50.874;4.762;2023-07-30T01:10:26;16.70;99.90
19966;DHT22;10144;50.874;4.762;2023-07-30T01:12:54;16.80;99.90
19966;DHT22;10144;50.874;4.762;2023-07-30T01:15:20;16.80;99.90
19966;DHT22;10144;50.874;4.762;2023-07-30T01:17:46;16.70;99.90
19966;DHT22;10144;50.874;4.762;2023-07-30T01:20:13;16.80;99.90
19966;DHT22;10144;50.874;4.762;2023-07-30T01:22:38;16.80;99.90
19966;DHT22;10144;50.874;4.762;2023-07-30T01:25:04;16.80;99.90
19966;DHT22;10144;50.874;4.762;2023-07-30T01:27:43;16.90;99.90
19966;DHT22;10144;50.874;4.762;2023-07-30T01:30:21;16.90;99.90
19966;DHT22;10144;50.874;4.762;2023-07-30T01:32:49;16.80;99.90
19966;DHT22;10144;50.874;4.762;2023-07-30T01:35:20;16.70;99.90
19966;DHT22;10144;50.874;4.762;2023-07-30T01:37:50;16.80;99.90
19966;DHT22;10144;50.874;4.762;2023-07-30T01:40:23;16.90;99.90
19966;DHT22;10144;50.874;4.762;2023-07-30T01:42:53;16.80;99.90
19966;DHT22;10144;50.874;4.762;2023-07-30T01:45:19;16.80;99.90
19966;DHT22;10144;50.874;4.762;2023-07-30T01:47:45;16.90;99.90
19966;DHT22;10144;50.874;4.762;2023-07-30T01:50:11;16.90;99.90
19966;DHT22;10144;50.874;4.762;2023-07-30T01:52:37;17.00;99.90
19966;DHT22;10144;50.874;4.762;2023-07-30T01:55:03;17.00;99.90
19966;DHT22;10144;50.874;4.762;2023-07-30T01:57:29;17.00;99.90
19966;DHT22;10144;50.874;4.762;2023-07-30T01:59:55;17.00;99.90
19966;DHT22;10144;50.874;4.762;2023-07-30T02:02:21;17.00;99.90
19966;DHT22;10144;50.874;4.762;2023-07-30T02:04:48;17.00;99.90
19966;DHT22;10144;50.874;4.762;2023-07-30T02:07:13;17.10;99.90
19966;DHT22;10144;50.874;4.762;2023-07-30T02:09:39;17.10;99.90
19966;DHT22;10144;50.874;4.762;2023-07-30T02:12:06;17.10;99.90
19966;DHT22;10144;50.874;4.762;2023-07-30T02:14:32;17.10;99.90
19966;DHT22;10144;50.874;4.762;2023-07-30T02:16:59;17.10;99.90
19966;DHT22;10144;50.874;4.762;2023-07-30T02:19:25;17.20;99.90
19966;DHT22;10144;50.874;4.762;2023-07-30T02:21:50;17.20;99.90
19966;DHT22;10144;50.874;4.762;2023-07-30T02:24:16;17.10;99.90
19966;DHT22;10144;50.874;4.762;2023-07-30T02:26:44;17.10;99.90
19966;DHT22;10144;50.874;4.762;2023-07-30T02:29:09;17.10;99.90
19966;DHT22;10144;50.874;4.762;2023-07-30T02:31:36;17.10;99.90
19966;DHT22;10144;50.874;4.762;2023-07-30T02:34:02;17.10;99.90
19966;DHT22;10144;50.874;4.762;2023-07-30T02:36:28;17.10;99.90
19966;DHT22;10144;50.874;4.762;2023-07-30T02:38:53;17.00;99.90
19966;DHT22;10144;50.874;4.762;2023-07-30T02:41:19;17.00;99.90
19966;DHT22;10144;50.874;4.762;2023-07-30T02:43:46;17.00;99.90
19966;DHT22;10144;50.874;4.762;2023-07-30T02:46:12;16.90;99.90
19966;DHT22;10144;50.874;4.762;2023-07-30T02:48:37;16.80;99.90
19966;DHT22;10144;50.874;4.762;2023-07-30T02:51:03;16.90;99.90
19966;DHT22;10144;50.874;4.762;2023-07-30T02:53:29;16.90;99.90
19966;DHT22;10144;50.874;4.762;2023-07-30T02:55:55;16.90;99.90
19966;DHT22;10144;50.874;4.762;2023-07-30T02:58:21;17.00;99.90
19966;DHT22;10144;50.874;4.762;2023-07-30T03:00:47;17.00;99.90
19966;DHT22;10144;50.874;4.762;2023-07-30T03:03:14;16.90;99.90
19966;DHT22;10144;50.874;4.762;2023-07-30T03:05:42;16.90;99.90
19966;DHT22;10144;50.874;4.762;2023-07-30T03:08:14;16.90;99.90
19966;DHT22;10144;50.874;4.762;2023-07-30T03:10:40;16.80;99.90
19966;DHT22;10144;50.874;4.762;2023-07-30T03:13:05;16.90;99.90
19966;DHT22;10144;50.874;4.762;2023-07-30T03:15:34;16.80;99.90
19966;DHT22;10144;50.874;4.762;2023-07-30T03:18:06;16.80;99.90
19966;DHT22;10144;50.874;4.762;2023-07-30T03:20:31;16.70;99.90
19966;DHT22;10144;50.874;4.762;2023-07-30T03:22:57;16.80;99.90
19966;DHT22;10144;50.874;4.762;2023-07-30T03:25:23;16.90;99.90
19966;DHT22;10144;50.874;4.762;2023-07-30T03:27:48;16.90;99.90
19966;DHT22;10144;50.874;4.762;2023-07-30T03:30:14;16.90;99.90
19966;DHT22;10144;50.874;4.762;2023-07-30T03:32:40;16.70;99.90
19966;DHT22;10144;50.874;4.762;2023-07-30T03:35:06;16.70;99.90
19966;DHT22;10144;50.874;4.762;2023-07-30T03:37:32;16.70;99.90
19966;DHT22;10144;50.874;4.762;2023-07-30T03:39:58;16.70;99.90
19966;DHT22;10144;50.874;4.762;2023-07-30T03:42:23;16.70;99.90
19966;DHT22;10144;50.874;4.762;2023-07-30T03:44:49;16.70;99.90
19966;DHT22;10144;50.874;4.762;2023-07-30T03:47:15;16.70;99.90
19966;DHT22;10144;50.874;4.762;2023-07-30T03:49:42;16.70;99.90
19966;DHT22;10144;50.874;4.762;2023-07-30T03:52:07;16.70;99.90
19966;DHT22;10144;50.874;4.762;2023-07-30T03:54:33;16.60;99.90
19966;DHT22;10144;50.874;4.762;2023-07-30T03:56:59;16.60;99.90
19966;DHT22;10144;50.874;4.762;2023-07-30T03:59:25;16.70;99.90
19966;DHT22;10144;50.874;4.762;2023-07-30T04:01:51;16.60;99.90
19966;DHT22;10144;50.874;4.762;2023-07-30T04:04:17;16.70;99.90
19966;DHT22;10144;50.874;4.762;2023-07-30T04:06:42;16.70;99.90
19966;DHT22;10144;50.874;4.762;2023-07-30T04:09:08;16.70;99.90
19966;DHT22;10144;50.874;4.762;2023-07-30T04:11:34;16.70;99.90
19966;DHT22;10144;50.874;4.762;2023-07-30T04:14:02;16.70;99.90
19966;DHT22;10144;50.874;4.762;2023-07-30T04:16:32;16.60;99.90
19966;DHT22;10144;50.874;4.762;2023-07-30T04:18:58;16.60;99.90
19966;DHT22;10144;50.874;4.762;2023-07-30T04:21:24;16.70;99.90
19966;DHT22;10144;50.874;4.762;2023-07-30T04:23:52;16.70;99.90
19966;DHT22;10144;50.874;4.762;2023-07-30T04:26:17;16.70;99.90
19966;DHT22;10144;50.874;4.762;2023-07-30T04:28:49;16.70;99.90
19966;DHT22;10144;50.874;4.762;2023-07-30T04:31:15;16.70;99.90
19966;DHT22;10144;50.874;4.762;2023-07-30T04:33:40;16.80;99.90
19966;DHT22;10144;50.874;4.762;2023-07-30T04:36:06;16.80;99.90
19966;DHT22;10144;50.874;4.762;2023-07-30T04:38:34;16.80;99.90
19966;DHT22;10144;50.874;4.762;2023-07-30T04:41:00;16.80;99.90
19966;DHT22;10144;50.874;4.762;2023-07-30T04:43:25;16.90;99.90
19966;DHT22;10144;50.874;4.762;2023-07-30T04:45:51;16.80;99.90
19966;DHT22;10144;50.874;4.762;2023-07-30T04:48:17;16.80;99.90
19966;DHT22;10144;50.874;4.762;2023-07-30T04:50:42;16.70;99.90
19966;DHT22;10144;50.874;4.762;2023-07-30T04:53:08;16.70;99.90
19966;DHT22;10144;50.874;4.762;2023-07-30T04:55:34;16.70;99.90
19966;DHT22;10144;50.874;4.762;2023-07-30T04:58:01;16.70;99.90
19966;DHT22;10144;50.874;4.762;2023-07-30T05:00:27;16.80;99.90
19966;DHT22;10144;50.874;4.762;2023-07-30T05:02:53;16.80;99.90
19966;DHT22;10144;50.874;4.762;2023-07-30T05:05:19;16.90;99.90
19966;DHT22;10144;50.874;4.762;2023-07-30T05:07:44;16.90;99.90
19966;DHT22;10144;50.874;4.762;2023-07-30T05:10:10;16.90;99.90
19966;DHT22;10144;50.874;4.762;2023-07-30T05:12:36;16.90;99.90
19966;DHT22;10144;50.874;4.762;2023-07-30T05:15:02;16.90;99.90
19966;DHT22;10144;50.874;4.762;2023-07-30T05:17:28;17.00;99.90
19966;DHT22;10144;50.874;4.762;2023-07-30T05:19:54;17.00;99.90
19966;DHT22;10144;50.874;4.762;2023-07-30T05:22:20;17.10;99.90
19966;DHT22;10144;50.874;4.762;2023-07-30T05:24:45;17.10;99.90
19966;DHT22;10144;50.874;4.762;2023-07-30T05:27:11;17.10;99.90
19966;DHT22;10144;50.874;4.762;2023-07-30T05:29:36;17.10;99.90
19966;DHT22;10144;50.874;4.762;2023-07-30T05:32:02;17.10;99.90
19966;DHT22;10144;50.874;4.762;2023-07-30T05:34:28;17.10;99.90
19966;DHT22;10144;50.874;4.762;2023-07-30T05:36:53;17.10;99.90
19966;DHT22;10144;50.874;4.762;2023-07-30T05:39:19;17.30;99.90
19966;DHT22;10144;50.874;4.762;2023-07-30T05:41:45;17.30;99.90
19966;DHT22;10144;50.874;4.762;2023-07-30T05:44:10;17.30;99.90
19966;DHT22;10144;50.874;4.762;2023-07-30T05:46:36;17.30;99.90
19966;DHT22;10144;50.874;4.762;2023-07-30T05:49:01;17.30;99.90
19966;DHT22;10144;50.874;4.762;2023-07-30T05:51:27;17.40;99.90
19966;DHT22;10144;50.874;4.762;2023-07-30T05:53:53;17.30;99.90
19966;DHT22;10144;50.874;4.762;2023-07-30T05:56:18;17.30;99.90
19966;DHT22;10144;50.874;4.762;2023-07-30T05:58:45;17.40;99.90
19966;DHT22;10144;50.874;4.762;2023-07-30T06:01:11;17.40;99.90
19966;DHT22;10144;50.874;4.762;2023-07-30T06:03:37;17.40;99.90
19966;DHT22;10144;50.874;4.762;2023-07-30T06:06:03;17.50;99.90
19966;DHT22;10144;50.874;4.762;2023-07-30T06:08:28;17.50;99.90
19966;DHT22;10144;50.874;4.762;2023-07-30T06:10:55;17.50;99.90
19966;DHT22;10144;50.874;4.762;2023-07-30T06:13:20;17.50;99.90
19966;DHT22;10144;50.874;4.762;2023-07-30T06:15:46;17.60;99.90
19966;DHT22;10144;50.874;4.762;2023-07-30T06:18:12;17.60;99.90
19966;DHT22;10144;50.874;4.762;2023-07-30T06:20:37;17.70;99.90
19966;DHT22;10144;50.874;4.762;2023-07-30T06:23:03;17.70;99.90
19966;DHT22;10144;50.874;4.762;2023-07-30T06:25:29;17.70;99.90
19966;DHT22;10144;50.874;4.762;2023-07-30T06:27:55;17.70;99.90
19966;DHT22;10144;50.874;4.762;2023-07-30T06:30:24;17.60;99.90
19966;DHT22;10144;50.874;4.762;2023-07-30T06:32:50;17.50;99.90
19966;DHT22;10144;50.874;4.762;2023-07-30T06:35:15;17.60;99.90
19966;DHT22;10144;50.874;4.762;2023-07-30T06:37:41;17.60;99.90
19966;DHT22;10144;50.874;4.762;2023-07-30T06:40:07;17.60;99.90
19966;DHT22;10144;50.874;4.762;2023-07-30T06:42:33;17.60;99.90
19966;DHT22;10144;50.874;4.762;2023-07-30T06:44:59;17.70;99.90
19966;DHT22;10144;50.874;4.762;2023-07-30T06:47:24;17.70;99.90
19966;DHT22;10144;50.874;4.762;2023-07-30T06:49:50;17.70;99.90
19966;DHT22;10144;50.874;4.762;2023-07-30T06:52:16;17.70;99.90
19966;DHT22;10144;50.874;4.762;2023-07-30T06:54:41;17.70;99.90
19966;DHT22;10144;50.874;4.762;2023-07-30T06:57:07;17.80;99.90
19966;DHT22;10144;50.874;4.762;2023-07-30T06:59:34;18.00;99.90
19966;DHT22;10144;50.874;4.762;2023-07-30T07:01:59;18.10;99.90
19966;DHT22;10144;50.874;4.762;2023-07-30T07:04:25;18.20;99.90
19966;DHT22;10144;50.874;4.762;2023-07-30T07:06:51;18.30;99.90
19966;DHT22;10144;50.874;4.762;2023-07-30T07:09:16;18.30;99.90
19966;DHT22;10144;50.874;4.762;2023-07-30T07:11:43;18.60;99.90
19966;DHT22;10144;50.874;4.762;2023-07-30T07:14:09;18.90;99.90
19966;DHT22;10144;50.874;4.762;2023-07-30T07:16:34;19.80;99.90
19966;DHT22;10144;50.874;4.762;2023-07-30T07:19:00;20.60;99.90
19966;DHT22;10144;50.874;4.762;2023-07-30T07:21:25;21.20;99.90
19966;DHT22;10144;50.874;4.762;2023-07-30T07:23:52;21.70;99.90
19966;DHT22;10144;50.874;4.762;2023-07-30T07:26:17;22.20;99.90
19966;DHT22;10144;50.874;4.762;2023-07-30T07:28:43;22.30;99.90
19966;DHT22;10144;50.874;4.762;2023-07-30T07:31:08;22.10;99.90
19966;DHT22;10144;50.874;4.762;2023-07-30T07:33:36;21.70;99.90
19966;DHT22;10144;50.874;4.762;2023-07-30T07:36:04;21.70;99.90
19966;DHT22;10144;50.874;4.762;2023-07-30T07:38:31;22.00;99.90
19966;DHT22;10144;50.874;4.762;2023-07-30T07:40:57;22.30;99.90
19966;DHT22;10144;50.874;4.762;2023-07-30T07:43:24;22.10;99.90
19966;DHT22;10144;50.874;4.762;2023-07-30T07:45:51;21.90;99.90
19966;DHT22;10144;50.874;4.762;2023-07-30T07:48:17;21.90;99.90
19966;DHT22;10144;50.874;4.762;2023-07-30T07:50:42;21.80;99.90
19966;DHT22;10144;50.874;4.762;2023-07-30T07:53:08;21.80;99.90
19966;DHT22;10144;50.874;4.762;2023-07-30T07:55:34;22.00;99.90
19966;DHT22;10144;50.874;4.762;2023-07-30T07:57:59;22.20;99.90
19966;DHT22;10144;50.874;4.762;2023-07-30T08:00:25;22.40;99.90
19966;DHT22;10144;50.874;4.762;2023-07-30T08:02:50;22.40;99.90
19966;DHT22;10144;50.874;4.762;2023-07-30T08:05:16;22.90;99.90
19966;DHT22;10144;50.874;4.762;2023-07-30T08:07:45;23.50;99.90
19966;DHT22;10144;50.874;4.762;2023-07-30T08:10:11;24.40;99.90
19966;DHT22;10144;50.874;4.762;2023-07-30T08:12:37;24.50;99.90
19966;DHT22;10144;50.874;4.762;2023-07-30T08:15:03;24.20;99.90
19966;DHT22;10144;50.874;4.762;2023-07-30T08:17:29;23.80;99.90
19966;DHT22;10144;50.874;4.762;2023-07-30T08:19:54;23.70;99.90
19966;DHT22;10144;50.874;4.762;2023-07-30T08:22:20;24.00;99.90
19966;DHT22;10144;50.874;4.762;2023-07-30T08:24:46;24.10;99.90
19966;DHT22;10144;50.874;4.762;2023-07-30T08:27:11;24.50;99.90
19966;DHT22;10144;50.874;4.762;2023-07-30T08:29:37;24.40;99.90
19966;DHT22;10144;50.874;4.762;2023-07-30T08:32:03;24.20;99.90
19966;DHT22;10144;50.874;4.762;2023-07-30T08:34:28;24.00;99.90
19966;DHT22;10144;50.874;4.762;2023-07-30T08:36:54;23.80;99.90
19966;DHT22;10144;50.874;4.762;2023-07-30T08:39:19;23.40;99.90
19966;DHT22;10144;50.874;4.762;2023-07-30T08:41:45;23.10;99.90
19966;DHT22;10144;50.874;4.762;2023-07-30T08:44:12;22.70;99.90
19966;DHT22;10144;50.874;4.762;2023-07-30T08:46:38;22.80;99.90
19966;DHT22;10144;50.874;4.762;2023-07-30T08:49:04;22.90;99.90
19966;DHT22;10144;50.874;4.762;2023-07-30T08:51:31;23.00;99.90
19966;DHT22;10144;50.874;4.762;2023-07-30T08:53:57;23.20;99.90
19966;DHT22;10144;50.874;4.762;2023-07-30T08:56:23;22.90;99.90
19966;DHT22;10144;50.874;4.762;2023-07-30T08:58:50;22.90;99.90
19966;DHT22;10144;50.874;4.762;2023-07-30T09:01:18;23.00;99.90
19966;DHT22;10144;50.874;4.762;2023-07-30T09:03:44;22.90;99.90
19966;DHT22;10144;50.874;4.762;2023-07-30T09:06:10;22.70;99.90
19966;DHT22;10144;50.874;4.762;2023-07-30T09:08:36;22.60;99.90
19966;DHT22;10144;50.874;4.762;2023-07-30T09:11:09;22.60;99.90
19966;DHT22;10144;50.874;4.762;2023-07-30T09:13:40;22.60;99.90
19966;DHT22;10144;50.874;4.762;2023-07-30T09:16:13;22.80;99.90
19966;DHT22;10144;50.874;4.762;2023-07-30T09:18:43;22.70;99.90
19966;DHT22;10144;50.874;4.762;2023-07-30T09:21:13;22.60;99.90
19966;DHT22;10144;50.874;4.762;2023-07-30T09:23:43;22.40;99.90
19966;DHT22;10144;50.874;4.762;2023-07-30T09:26:09;22.30;99.90
19966;DHT22;10144;50.874;4.762;2023-07-30T09:28:35;22.10;99.90
19966;DHT22;10144;50.874;4.762;2023-07-30T09:31:06;22.20;99.90
19966;DHT22;10144;50.874;4.762;2023-07-30T09:33:32;22.20;99.90
19966;DHT22;10144;50.874;4.762;2023-07-30T09:36:01;22.20;99.90
19966;DHT22;10144;50.874;4.762;2023-07-30T09:38:26;22.10;99.90
19966;DHT22;10144;50.874;4.762;2023-07-30T09:41:00;21.80;99.90
19966;DHT22;10144;50.874;4.762;2023-07-30T09:43:32;21.20;99.90
19966;DHT22;10144;50.874;4.762;2023-07-30T09:46:06;20.70;99.90
19966;DHT22;10144;50.874;4.762;2023-07-30T09:48:33;20.50;99.90
19966;DHT22;10144;50.874;4.762;2023-07-30T09:51:03;20.10;99.90
19966;DHT22;10144;50.874;4.762;2023-07-30T09:53:33;20.00;99.90
19966;DHT22;10144;50.874;4.762;2023-07-30T09:56:02;20.00;99.90
19966;DHT22;10144;50.874;4.762;2023-07-30T09:58:29;20.20;99.90
19966;DHT22;10144;50.874;4.762;2023-07-30T10:00:57;20.30;99.90
19966;DHT22;10144;50.874;4.762;2023-07-30T10:03:24;20.50;99.90
19966;DHT22;10144;50.874;4.762;2023-07-30T10:05:51;20.80;99.90
19966;DHT22;10144;50.874;4.762;2023-07-30T10:08:23;21.00;99.90
19966;DHT22;10144;50.874;4.762;2023-07-30T10:10:50;21.20;99.90
19966;DHT22;10144;50.874;4.762;2023-07-30T10:13:18;21.50;99.90
19966;DHT22;10144;50.874;4.762;2023-07-30T10:15:46;21.60;99.90
19966;DHT22;10144;50.874;4.762;2023-07-30T10:18:12;21.50;99.90
19966;DHT22;10144;50.874;4.762;2023-07-30T10:20:38;21.80;99.90
19966;DHT22;10144;50.874;4.762;2023-07-30T10:23:05;21.70;99.90
19966;DHT22;10144;50.874;4.762;2023-07-30T10:25:45;21.70;99.90
19966;DHT22;10144;50.874;4.762;2023-07-30T10:31:01;20.90;99.90
19966;DHT22;10144;50.874;4.762;2023-07-30T10:33:52;20.90;99.90
19966;DHT22;10144;50.874;4.762;2023-07-30T10:36:30;20.80;99.90
19966;DHT22;10144;50.874;4.762;2023-07-30T10:38:57;20.50;99.90
19966;DHT22;10144;50.874;4.762;2023-07-30T10:41:22;20.10;99.90
19966;DHT22;10144;50.874;4.762;2023-07-30T10:43:51;20.00;99.90
19966;DHT22;10144;50.874;4.762;2023-07-30T10:46:19;20.00;99.90
19966;DHT22;10144;50.874;4.762;2023-07-30T10:48:46;20.10;99.90
19966;DHT22;10144;50.874;4.762;2023-07-30T10:51:17;20.30;99.90
19966;DHT22;10144;50.874;4.762;2023-07-30T10:53:44;20.60;99.90
19966;DHT22;10144;50.874;4.762;2023-07-30T10:56:11;21.60;99.90
19966;DHT22;10144;50.874;4.762;2023-07-30T10:58:37;22.20;99.90
19966;DHT22;10144;50.874;4.762;2023-07-30T11:01:07;23.10;99.90
19966;DHT22;10144;50.874;4.762;2023-07-30T11:03:34;23.40;99.90
19966;DHT22;10144;50.874;4.762;2023-07-30T11:06:01;23.20;99.90
19966;DHT22;10144;50.874;4.762;2023-07-30T11:08:38;23.10;99.90
19966;DHT22;10144;50.874;4.762;2023-07-30T11:11:05;23.00;99.90
19966;DHT22;10144;50.874;4.762;2023-07-30T11:13:37;22.80;99.90
19966;DHT22;10144;50.874;4.762;2023-07-30T11:16:08;22.60;99.90
19966;DHT22;10144;50.874;4.762;2023-07-30T11:18:35;22.20;99.90
19966;DHT22;10144;50.874;4.762;2023-07-30T11:21:08;21.70;99.90
19966;DHT22;10144;50.874;4.762;2023-07-30T11:23:35;21.40;99.90
19966;DHT22;10144;50.874;4.762;2023-07-30T11:26:02;21.50;99.90
19966;DHT22;10144;50.874;4.762;2023-07-30T11:28:36;21.80;99.90
19966;DHT22;10144;50.874;4.762;2023-07-30T11:31:36;22.00;99.90
19966;DHT22;10144;50.874;4.762;2023-07-30T11:33:55;22.20;99.90
19966;DHT22;10144;50.874;4.762;2023-07-30T11:36:22;23.00;99.90
19966;DHT22;10144;50.874;4.762;2023-07-30T11:38:50;23.30;99.90
19966;DHT22;10144;50.874;4.762;2023-07-30T11:41:18;23.70;99.90
19966;DHT22;10144;50.874;4.762;2023-07-30T11:43:45;23.80;99.90
19966;DHT22;10144;50.874;4.762;2023-07-30T11:46:15;23.90;99.90
19966;DHT22;10144;50.874;4.762;2023-07-30T11:48:44;24.20;99.90
19966;DHT22;10144;50.874;4.762;2023-07-30T11:51:27;24.20;99.90
19966;DHT22;10144;50.874;4.762;2023-07-30T11:53:58;24.70;99.90
19966;DHT22;10144;50.874;4.762;2023-07-30T11:56:28;24.60;99.90
19966;DHT22;10144;50.874;4.762;2023-07-30T11:59:06;24.90;99.90
19966;DHT22;10144;50.874;4.762;2023-07-30T12:01:34;25.40;99.90
19966;DHT22;10144;50.874;4.762;2023-07-30T12:04:02;26.10;99.90
19966;DHT22;10144;50.874;4.762;2023-07-30T12:06:50;26.40;99.90
19966;DHT22;10144;50.874;4.762;2023-07-30T12:09:24;26.70;99.90
19966;DHT22;10144;50.874;4.762;2023-07-30T12:14:22;26.20;99.90
19966;DHT22;10144;50.874;4.762;2023-07-30T12:16:48;26.20;99.90
19966;DHT22;10144;50.874;4.762;2023-07-30T12:19:13;26.10;99.90
19966;DHT22;10144;50.874;4.762;2023-07-30T12:21:40;26.20;99.90
19966;DHT22;10144;50.874;4.762;2023-07-30T12:24:06;26.20;99.90
19966;DHT22;10144;50.874;4.762;2023-07-30T12:26:32;26.20;99.90
19966;DHT22;10144;50.874;4.762;2023-07-30T12:28:57;26.30;99.90
19966;DHT22;10144;50.874;4.762;2023-07-30T12:31:23;26.30;99.90
19966;DHT22;10144;50.874;4.762;2023-07-30T12:33:48;26.30;99.90
19966;DHT22;10144;50.874;4.762;2023-07-30T12:36:14;26.20;99.90
19966;DHT22;10144;50.874;4.762;2023-07-30T12:38:40;26.00;99.90
19966;DHT22;10144;50.874;4.762;2023-07-30T12:41:05;25.70;99.90
19966;DHT22;10144;50.874;4.762;2023-07-30T12:43:31;25.50;99.90
19966;DHT22;10144;50.874;4.762;2023-07-30T12:45:57;25.40;99.90
19966;DHT22;10144;50.874;4.762;2023-07-30T12:48:22;25.40;99.90
19966;DHT22;10144;50.874;4.762;2023-07-30T12:50:48;25.50;99.90
19966;DHT22;10144;50.874;4.762;2023-07-30T12:53:13;25.40;99.90
19966;DHT22;10144;50.874;4.762;2023-07-30T12:55:39;24.90;99.90
19966;DHT22;10144;50.874;4.762;2023-07-30T12:58:05;24.40;99.90
19966;DHT22;10144;50.874;4.762;2023-07-30T13:00:32;24.40;99.90
19966;DHT22;10144;50.874;4.762;2023-07-30T13:02:58;24.80;99.90
19966;DHT22;10144;50.874;4.762;2023-07-30T13:05:24;25.30;99.90
19966;DHT22;10144;50.874;4.762;2023-07-30T13:07:49;25.30;99.90
19966;DHT22;10144;50.874;4.762;2023-07-30T13:10:15;25.30;99.90
19966;DHT22;10144;50.874;4.762;2023-07-30T13:12:40;25.30;99.90
19966;DHT22;10144;50.874;4.762;2023-07-30T13:15:07;25.10;99.90
19966;DHT22;10144;50.874;4.762;2023-07-30T13:17:33;24.70;99.90
19966;DHT22;10144;50.874;4.762;2023-07-30T13:19:58;24.80;99.90
19966;DHT22;10144;50.874;4.762;2023-07-30T13:22:24;25.20;99.90
19966;DHT22;10144;50.874;4.762;2023-07-30T13:24:50;25.30;99.90
19966;DHT22;10144;50.874;4.762;2023-07-30T13:27:17;25.10;99.90
19966;DHT22;10144;50.874;4.762;2023-07-30T13:29:43;25.00;99.90
19966;DHT22;10144;50.874;4.762;2023-07-30T13:32:08;24.70;99.90
19966;DHT22;10144;50.874;4.762;2023-07-30T13:34:34;24.50;99.90
19966;DHT22;10144;50.874;4.762;2023-07-30T13:37:00;24.40;99.90
19966;DHT22;10144;50.874;4.762;2023-07-30T13:39:25;24.30;99.90
19966;DHT22;10144;50.874;4.762;2023-07-30T13:41:51;24.60;99.90
19966;DHT22;10144;50.874;4.762;2023-07-30T13:44:16;24.50;99.90
19966;DHT22;10144;50.874;4.762;2023-07-30T13:46:42;24.20;99.90
19966;DHT22;10144;50.874;4.762;2023-07-30T13:49:08;24.30;99.90
19966;DHT22;10144;50.874;4.762;2023-07-30T13:51:33;24.60;99.90
19966;DHT22;10144;50.874;4.762;2023-07-30T13:53:59;24.90;99.90
19966;DHT22;10144;50.874;4.762;2023-07-30T13:56:26;25.00;99.90
19966;DHT22;10144;50.874;4.762;2023-07-30T13:58:52;25.00;99.90
19966;DHT22;10144;50.874;4.762;2023-07-30T14:01:17;24.70;99.90
19966;DHT22;10144;50.874;4.762;2023-07-30T14:03:44;24.50;99.90
19966;DHT22;10144;50.874;4.762;2023-07-30T14:06:10;24.70;99.90
19966;DHT22;10144;50.874;4.762;2023-07-30T14:08:36;24.70;99.90
19966;DHT22;10144;50.874;4.762;2023-07-30T14:11:01;24.40;99.90
19966;DHT22;10144;50.874;4.762;2023-07-30T14:13:27;24.40;99.90
19966;DHT22;10144;50.874;4.762;2023-07-30T14:15:53;24.40;99.90
19966;DHT22;10144;50.874;4.762;2023-07-30T14:18:18;24.20;99.90
19966;DHT22;10144;50.874;4.762;2023-07-30T14:20:44;24.10;99.90
19966;DHT22;10144;50.874;4.762;2023-07-30T14:23:09;24.00;99.90
19966;DHT22;10144;50.874;4.762;2023-07-30T14:25:37;24.40;99.90
19966;DHT22;10144;50.874;4.762;2023-07-30T14:28:02;24.70;99.90
19966;DHT22;10144;50.874;4.762;2023-07-30T14:30:28;25.00;99.90
19966;DHT22;10144;50.874;4.762;2023-07-30T14:32:54;25.20;99.90
19966;DHT22;10144;50.874;4.762;2023-07-30T14:35:20;25.10;99.90
19966;DHT22;10144;50.874;4.762;2023-07-30T14:37:45;25.10;99.90
19966;DHT22;10144;50.874;4.762;2023-07-30T14:40:11;24.70;99.90
19966;DHT22;10144;50.874;4.762;2023-07-30T14:42:37;24.40;99.90
19966;DHT22;10144;50.874;4.762;2023-07-30T14:45:02;24.10;99.90
19966;DHT22;10144;50.874;4.762;2023-07-30T14:47:28;23.60;99.90
19966;DHT22;10144;50.874;4.762;2023-07-30T14:49:54;23.60;99.90
19966;DHT22;10144;50.874;4.762;2023-07-30T14:52:20;23.70;99.90
19966;DHT22;10144;50.874;4.762;2023-07-30T14:54:46;23.70;99.90
19966;DHT22;10144;50.874;4.762;2023-07-30T14:57:11;23.60;99.90
19966;DHT22;10144;50.874;4.762;2023-07-30T14:59:37;23.80;99.90
19966;DHT22;10144;50.874;4.762;2023-07-30T15:02:03;24.10;99.90
19966;DHT22;10144;50.874;4.762;2023-07-30T15:04:28;24.30;99.90
19966;DHT22;10144;50.874;4.762;2023-07-30T15:06:56;24.30;99.90
19966;DHT22;10144;50.874;4.762;2023-07-30T15:09:21;24.00;99.90
19966;DHT22;10144;50.874;4.762;2023-07-30T15:11:47;23.70;99.90
19966;DHT22;10144;50.874;4.762;2023-07-30T15:14:12;23.50;99.90
19966;DHT22;10144;50.874;4.762;2023-07-30T15:16:38;23.40;99.90
19966;DHT22;10144;50.874;4.762;2023-07-30T15:19:04;23.20;99.90
19966;DHT22;10144;50.874;4.762;2023-07-30T15:21:30;23.10;99.90
19966;DHT22;10144;50.874;4.762;2023-07-30T15:23:56;23.10;99.90
19966;DHT22;10144;50.874;4.762;2023-07-30T15:26:24;22.90;99.90
19966;DHT22;10144;50.874;4.762;2023-07-30T15:28:49;22.80;99.90
19966;DHT22;10144;50.874;4.762;2023-07-30T15:31:15;22.80;99.90
19966;DHT22;10144;50.874;4.762;2023-07-30T15:33:40;22.70;99.90